createdAt,value
2018-04-27T00:02:21.470Z,9.80
2018-04-27T00:04:48.984Z,9.70
2018-04-27T00:07:16.510Z,9.60
2018-04-27T00:09:44.844Z,9.40
2018-04-27T00:12:12.368Z,9.40
2018-04-27T00:14:39.915Z,9.50
2018-04-27T00:17:07.437Z,9.50
2018-04-27T00:19:34.983Z,9.40
2018-04-27T00:22:02.498Z,9.30
2018-04-27T00:24:30.046Z,9.30
2018-04-27T00:26:58.320Z,9.40
2018-04-27T00:29:26.629Z,9.40
2018-04-27T00:31:54.152Z,9.40
2018-04-27T00:34:21.688Z,9.40
2018-04-27T00:36:49.243Z,9.40
2018-04-27T00:39:16.763Z,9.40
2018-04-27T00:41:44.310Z,9.40
2018-04-27T00:44:11.829Z,9.40
2018-04-27T00:46:39.373Z,9.30
2018-04-27T00:49:06.891Z,9.40
2018-04-27T00:51:34.430Z,9.30
2018-04-27T00:54:02.717Z,9.20
2018-04-27T00:56:30.234Z,9.10
2018-04-27T00:58:57.781Z,9.10
2018-04-27T01:01:25.305Z,8.90
2018-04-27T01:03:52.841Z,8.90
2018-04-27T01:06:21.157Z,8.80
2018-04-27T01:08:48.706Z,8.80
2018-04-27T01:11:16.238Z,8.70
2018-04-27T01:13:43.785Z,8.80
2018-04-27T01:16:12.078Z,8.60
2018-04-27T01:18:39.624Z,8.60
2018-04-27T01:23:41.056Z,8.50
2018-04-27T01:26:08.605Z,8.60
2018-04-27T01:28:36.161Z,8.60
2018-04-27T01:31:03.712Z,8.60
2018-04-27T01:33:31.236Z,8.50
2018-04-27T01:35:58.784Z,8.50
2018-04-27T01:38:27.073Z,8.50
2018-04-27T01:40:55.569Z,8.50
2018-04-27T01:43:23.094Z,8.40
2018-04-27T01:45:52.380Z,8.30
2018-04-27T01:48:19.890Z,8.30
2018-04-27T01:50:47.448Z,8.30
2018-04-27T01:53:14.972Z,8.20
2018-04-27T01:55:44.227Z,8.20
2018-04-27T01:58:11.774Z,8.10
2018-04-27T02:00:39.300Z,8.20
2018-04-27T02:03:06.878Z,8.20
2018-04-27T02:05:35.325Z,8.20
2018-04-27T02:08:03.633Z,7.70
2018-04-27T02:10:31.157Z,7.70
2018-04-27T02:12:59.470Z,7.80
2018-04-27T02:15:26.992Z,7.80
2018-04-27T02:17:56.508Z,7.80
2018-04-27T02:37:42.105Z,7.70
2018-04-27T02:40:10.405Z,7.60
2018-04-27T02:42:37.950Z,7.60
2018-04-27T02:45:05.469Z,7.60
2018-04-27T02:47:32.990Z,7.70
2018-04-27T02:50:00.525Z,7.60
2018-04-27T02:52:29.002Z,7.50
2018-04-27T02:54:56.540Z,7.40
2018-04-27T02:57:24.850Z,7.20
2018-04-27T02:59:52.399Z,7.20
2018-04-27T03:02:19.926Z,7.20
2018-04-27T03:04:47.482Z,7.20
2018-04-27T03:07:15.026Z,7.20
2018-04-27T03:09:42.548Z,7.20
2018-04-27T03:12:12.053Z,7.10
2018-04-27T03:14:39.594Z,7.20
2018-04-27T03:17:07.142Z,7.10
2018-04-27T03:19:34.663Z,7.10
2018-04-27T03:22:02.225Z,7.00
2018-04-27T03:24:29.745Z,7.00
2018-04-27T03:26:57.314Z,7.00
2018-04-27T03:29:24.846Z,7.00
2018-04-27T03:31:52.366Z,7.00
2018-04-27T03:34:19.980Z,6.70
2018-04-27T03:36:47.447Z,6.80
2018-04-27T03:39:14.993Z,6.80
2018-04-27T03:41:42.517Z,6.80
2018-04-27T03:44:10.057Z,6.90
2018-04-27T03:46:37.587Z,6.90
2018-04-27T03:49:05.129Z,6.80
2018-04-27T03:51:32.652Z,6.90
2018-04-27T03:54:00.224Z,7.00
2018-04-27T03:56:27.804Z,6.80
2018-04-27T03:58:56.279Z,6.70
2018-04-27T04:01:35.652Z,6.70
2018-04-27T04:04:28.951Z,6.90
2018-04-27T04:06:57.261Z,7.00
2018-04-27T04:09:24.781Z,6.90
2018-04-27T04:11:53.090Z,6.90
2018-04-27T04:14:20.609Z,6.90
2018-04-27T04:16:48.166Z,7.00
2018-04-27T04:19:15.699Z,6.90
2018-04-27T04:21:43.245Z,6.90
2018-04-27T04:24:10.789Z,7.00
2018-04-27T04:26:38.333Z,6.70
2018-04-27T04:29:05.875Z,6.90
2018-04-27T04:31:33.440Z,6.90
2018-04-27T04:34:01.949Z,6.80
2018-04-27T04:36:29.473Z,6.80
2018-04-27T04:38:56.980Z,6.80
2018-04-27T04:41:24.525Z,6.80
2018-04-27T04:43:52.045Z,6.80
2018-04-27T04:46:20.355Z,6.80
2018-04-27T04:48:49.042Z,6.80
2018-04-27T04:51:16.591Z,6.90
2018-04-27T04:53:45.057Z,7.00
2018-04-27T04:56:13.346Z,7.00
2018-04-27T04:58:40.889Z,7.00
2018-04-27T05:01:09.164Z,7.10
2018-04-27T05:03:37.485Z,7.20
2018-04-27T05:06:05.010Z,7.20
2018-04-27T05:08:32.566Z,7.30
2018-04-27T05:11:00.854Z,7.40
2018-04-27T05:13:28.378Z,7.40
2018-04-27T05:15:56.739Z,7.70
2018-04-27T05:21:35.813Z,8.00
2018-04-27T05:24:03.337Z,8.20
2018-04-27T05:26:30.884Z,8.30
2018-04-27T05:28:58.409Z,8.30
2018-04-27T05:31:25.959Z,8.30
2018-04-27T05:33:53.481Z,8.50
2018-04-27T05:36:21.001Z,8.50
2018-04-27T05:38:48.558Z,8.50
2018-04-27T05:41:17.095Z,8.60
2018-04-27T05:43:45.738Z,8.80
2018-04-27T05:46:13.271Z,8.90
2018-04-27T05:48:40.802Z,9.10
2018-04-27T05:51:09.145Z,9.90
2018-04-27T05:53:36.678Z,9.80
2018-04-27T05:56:04.252Z,10.10
2018-04-27T05:58:31.772Z,10.30
2018-04-27T06:00:59.309Z,10.50
2018-04-27T06:03:33.575Z,10.60
2018-04-27T06:06:02.068Z,10.70
2018-04-27T06:08:29.618Z,10.80
2018-04-27T06:10:57.158Z,10.80
2018-04-27T06:13:24.709Z,11.00
2018-04-27T06:15:52.237Z,10.90
2018-04-27T06:18:20.547Z,10.90
2018-04-27T06:20:48.097Z,10.90
2018-04-27T06:23:16.391Z,11.20
2018-04-27T06:25:43.963Z,11.20
2018-04-27T06:28:11.490Z,11.30
2018-04-27T06:30:39.062Z,11.50
2018-04-27T06:33:06.605Z,11.30
2018-04-27T06:35:34.141Z,11.50
2018-04-27T06:38:01.695Z,11.50
2018-04-27T06:40:29.237Z,11.60
2018-04-27T06:42:58.760Z,11.70
2018-04-27T06:45:26.293Z,12.00
2018-04-27T06:47:53.869Z,12.00
2018-04-27T06:50:21.405Z,12.00
2018-04-27T06:52:48.962Z,12.00
2018-04-27T06:55:16.523Z,12.20
2018-04-27T06:57:44.053Z,12.30
2018-04-27T07:00:11.609Z,12.60
2018-04-27T07:02:39.330Z,12.70
2018-04-27T07:05:06.940Z,12.30
2018-04-27T07:07:34.447Z,12.60
2018-04-27T07:10:01.965Z,12.60
2018-04-27T07:12:29.514Z,12.80
2018-04-27T07:14:57.037Z,12.90
2018-04-27T07:17:25.155Z,12.80
2018-04-27T07:19:52.693Z,12.90
2018-04-27T07:22:20.323Z,13.00
2018-04-27T07:24:47.867Z,13.20
2018-04-27T07:27:15.446Z,13.20
2018-04-27T07:29:42.974Z,13.50
2018-04-27T07:32:10.505Z,13.60
2018-04-27T07:34:38.092Z,13.50
2018-04-27T07:37:05.637Z,13.60
2018-04-27T07:39:33.190Z,13.90
2018-04-27T07:42:00.745Z,14.10
2018-04-27T07:44:28.293Z,14.30
2018-04-27T07:46:55.843Z,14.30
2018-04-27T07:49:25.368Z,14.50
2018-04-27T07:51:52.921Z,14.50
2018-04-27T07:54:20.477Z,14.70
2018-04-27T07:56:48.033Z,14.90
2018-04-27T07:59:16.605Z,15.10
2018-04-27T08:01:44.921Z,14.60
2018-04-27T08:04:12.445Z,14.60
2018-04-27T08:06:40.005Z,14.20
2018-04-27T08:09:07.532Z,14.30
2018-04-27T08:11:35.306Z,14.70
2018-04-27T08:14:03.600Z,14.90
2018-04-27T08:16:31.903Z,14.60
2018-04-27T08:18:59.455Z,14.60
2018-04-27T08:21:26.989Z,14.50
2018-04-27T08:23:54.545Z,14.70
2018-04-27T08:26:22.909Z,14.60
2018-04-27T08:28:52.459Z,14.70
2018-04-27T08:31:19.995Z,14.60
2018-04-27T08:33:48.293Z,14.70
2018-04-27T08:36:15.848Z,14.70
2018-04-27T08:38:43.409Z,14.50
2018-04-27T08:41:10.955Z,14.80
2018-04-27T08:43:38.493Z,15.10
2018-04-27T08:46:06.808Z,15.40
2018-04-27T08:48:34.346Z,15.40
2018-04-27T08:51:01.872Z,15.20
2018-04-27T08:53:32.155Z,15.20
2018-04-27T08:55:59.681Z,15.20
2018-04-27T08:58:27.229Z,15.20
2018-04-27T09:00:55.518Z,15.40
2018-04-27T09:03:25.058Z,15.40
2018-04-27T09:05:52.603Z,15.40
2018-04-27T09:08:20.129Z,15.70
2018-04-27T09:10:47.684Z,15.60
2018-04-27T09:13:15.999Z,15.70
2018-04-27T09:15:43.558Z,15.70
2018-04-27T09:18:11.080Z,15.70
2018-04-27T09:20:38.682Z,15.70
2018-04-27T09:23:06.229Z,15.70
2018-04-27T09:25:33.758Z,15.70
2018-04-27T09:28:01.313Z,15.80
2018-04-27T09:30:28.834Z,15.60
2018-04-27T09:32:56.379Z,15.60
2018-04-27T09:35:23.900Z,15.80
2018-04-27T09:37:51.456Z,16.00
2018-04-27T09:40:18.987Z,16.10
2018-04-27T09:42:46.512Z,15.90
2018-04-27T09:45:15.044Z,16.00
2018-04-27T09:47:42.569Z,16.10
2018-04-27T09:50:10.154Z,16.20
2018-04-27T09:52:37.681Z,16.30
2018-04-27T09:55:05.241Z,15.80
2018-04-27T09:57:32.772Z,15.80
2018-04-27T10:00:00.300Z,15.50
2018-04-27T10:02:28.620Z,15.50
2018-04-27T10:04:56.179Z,15.50
2018-04-27T10:07:23.738Z,15.60
2018-04-27T10:09:51.261Z,15.70
2018-04-27T10:12:18.825Z,16.20
2018-04-27T10:14:46.355Z,16.50
2018-04-27T10:17:14.857Z,16.40
2018-04-27T10:19:43.186Z,16.70
2018-04-27T10:22:10.709Z,16.70
2018-04-27T10:24:38.261Z,16.80
2018-04-27T10:27:05.795Z,17.00
2018-04-27T10:29:33.390Z,17.30
2018-04-27T10:32:00.934Z,17.10
2018-04-27T10:34:28.499Z,17.00
2018-04-27T10:36:56.796Z,17.60
2018-04-27T10:39:24.325Z,17.60
2018-04-27T10:41:52.653Z,18.10
2018-04-27T10:44:20.169Z,18.10
2018-04-27T10:46:48.481Z,17.80
2018-04-27T10:49:16.009Z,17.80
2018-04-27T10:51:43.560Z,18.00
2018-04-27T10:54:11.850Z,17.70
2018-04-27T10:56:39.410Z,17.60
2018-04-27T10:59:06.938Z,17.90
2018-04-27T11:01:34.482Z,17.80
2018-04-27T11:04:02.790Z,18.10
2018-04-27T11:06:31.083Z,18.20
2018-04-27T11:08:58.633Z,18.20
2018-04-27T11:11:26.167Z,18.60
2018-04-27T11:13:53.729Z,18.30
2018-04-27T11:16:21.253Z,18.20
2018-04-27T11:18:48.800Z,18.80
2018-04-27T11:21:16.337Z,18.80
2018-04-27T11:23:43.863Z,19.20
2018-04-27T11:26:12.397Z,19.30
2018-04-27T11:28:39.973Z,19.60
2018-04-27T11:31:07.493Z,19.30
2018-04-27T11:33:35.016Z,19.00
2018-04-27T11:36:04.505Z,18.70
2018-04-27T11:38:32.025Z,19.00
2018-04-27T11:40:59.564Z,19.30
2018-04-27T11:43:29.054Z,19.40
2018-04-27T11:45:56.600Z,19.80
2018-04-27T11:48:24.164Z,19.60
2018-04-27T11:50:51.693Z,19.60
2018-04-27T11:53:19.316Z,19.30
2018-04-27T11:55:46.818Z,19.20
2018-04-27T11:58:14.361Z,19.00
2018-04-27T12:00:45.783Z,19.30
2018-04-27T12:03:13.315Z,20.00
2018-04-27T12:05:40.884Z,20.50
2018-04-27T12:08:09.180Z,19.70
2018-04-27T12:10:36.767Z,19.70
2018-04-27T12:13:04.290Z,20.10
2018-04-27T12:15:31.837Z,20.30
2018-04-27T12:18:00.166Z,20.40
2018-04-27T12:20:27.694Z,20.30
2018-04-27T12:22:55.243Z,20.80
2018-04-27T12:25:22.802Z,21.10
2018-04-27T12:27:50.364Z,21.70
2018-04-27T12:30:17.897Z,21.90
2018-04-27T12:32:45.425Z,21.60
2018-04-27T12:35:12.994Z,22.20
2018-04-27T12:37:40.514Z,22.00
2018-04-27T12:40:08.089Z,21.80
2018-04-27T12:42:43.328Z,21.60
2018-04-27T12:45:10.917Z,20.80
2018-04-27T12:47:38.445Z,21.40
2018-04-27T12:50:06.017Z,22.00
2018-04-27T12:52:34.513Z,21.90
2018-04-27T12:55:02.074Z,21.90
2018-04-27T12:57:29.643Z,22.10
2018-04-27T12:59:57.199Z,22.20
2018-04-27T13:02:24.764Z,22.00
2018-04-27T13:04:52.301Z,22.60
2018-04-27T13:07:20.827Z,23.30
2018-04-27T13:09:48.412Z,23.80
2018-04-27T13:12:15.976Z,23.10
2018-04-27T13:14:43.512Z,23.30
2018-04-27T13:17:11.037Z,23.00
2018-04-27T13:19:39.354Z,22.40
2018-04-27T13:22:06.885Z,22.40
2018-04-27T13:24:35.201Z,23.10
2018-04-27T13:27:02.724Z,23.10
2018-04-27T13:29:30.294Z,22.80
2018-04-27T13:31:57.863Z,23.10
2018-04-27T13:34:26.252Z,24.80
2018-04-27T13:36:53.707Z,24.70
2018-04-27T13:39:21.234Z,25.00
2018-04-27T13:41:49.548Z,25.70
2018-04-27T13:44:17.091Z,25.60
2018-04-27T13:46:45.602Z,25.90
2018-04-27T13:49:13.138Z,25.90
2018-04-27T13:51:40.701Z,25.70
2018-04-27T13:54:08.233Z,26.00
2018-04-27T13:56:36.560Z,24.50
2018-04-27T13:59:04.087Z,24.50
2018-04-27T14:01:31.625Z,24.70
2018-04-27T14:03:59.945Z,26.50
2018-04-27T14:06:27.472Z,26.50
2018-04-27T14:08:55.029Z,25.50
2018-04-27T14:11:23.329Z,25.50
2018-04-27T14:13:50.893Z,25.50
2018-04-27T14:16:18.474Z,25.90
2018-04-27T14:18:46.043Z,26.60
2018-04-27T14:21:13.622Z,26.20
2018-04-27T14:23:42.101Z,26.00
2018-04-27T14:26:10.424Z,25.50
2018-04-27T14:28:37.955Z,25.50
2018-04-27T14:31:06.281Z,24.90
2018-04-27T14:33:33.834Z,24.90
2018-04-27T14:36:01.668Z,24.40
2018-04-27T14:38:30.072Z,25.50
2018-04-27T14:40:57.631Z,25.50
2018-04-27T14:43:25.181Z,25.90
2018-04-27T14:45:52.764Z,25.90
2018-04-27T14:48:20.377Z,27.60
2018-04-27T14:50:48.665Z,27.90
2018-04-27T14:53:16.224Z,27.80
2018-04-27T14:55:43.749Z,27.60
2018-04-27T14:58:11.343Z,27.50
2018-04-27T15:00:38.872Z,27.90
2018-04-27T15:03:06.431Z,28.80
2018-04-27T15:05:33.955Z,29.80
2018-04-27T15:08:01.501Z,29.40
2018-04-27T15:10:29.056Z,30.00
2018-04-27T15:12:56.587Z,31.20
2018-04-27T15:15:24.137Z,33.40
2018-04-27T15:17:51.666Z,33.80
2018-04-27T15:20:19.218Z,34.00
2018-04-27T15:22:46.745Z,34.70
2018-04-27T15:25:14.298Z,35.60
2018-04-27T15:27:41.835Z,35.00
2018-04-27T15:30:10.142Z,36.30
2018-04-27T15:32:37.719Z,36.20
2018-04-27T15:35:05.485Z,35.60
2018-04-27T15:37:33.038Z,36.10
2018-04-27T15:40:00.652Z,35.80
2018-04-27T15:42:28.138Z,35.80
2018-04-27T15:44:56.625Z,35.50
2018-04-27T15:47:24.186Z,34.90
2018-04-27T15:49:51.719Z,34.00
2018-04-27T15:52:19.281Z,33.60
2018-04-27T15:54:46.889Z,33.90
2018-04-27T15:57:14.417Z,34.20
2018-04-27T15:59:41.982Z,33.80
2018-04-27T16:02:09.540Z,33.90
2018-04-27T16:04:37.098Z,34.60
2018-04-27T16:07:04.672Z,34.60
2018-04-27T16:09:32.242Z,35.30
2018-04-27T16:11:59.797Z,35.70
2018-04-27T16:14:27.349Z,36.00
2018-04-27T16:16:54.908Z,36.20
2018-04-27T16:19:22.493Z,36.30
2018-04-27T16:21:50.050Z,35.90
2018-04-27T16:24:17.572Z,36.30
2018-04-27T16:26:45.130Z,36.80
2018-04-27T16:29:12.677Z,35.80
2018-04-27T16:31:40.256Z,32.50
2018-04-27T16:34:07.785Z,29.80
2018-04-27T16:36:35.369Z,28.20
2018-04-27T16:39:02.917Z,27.30
2018-04-27T16:41:30.453Z,26.30
2018-04-27T16:43:58.012Z,25.70
2018-04-27T16:46:26.322Z,25.10
2018-04-27T16:48:53.882Z,25.10
2018-04-27T16:51:21.464Z,25.00
2018-04-27T16:53:49.009Z,24.70
2018-04-27T16:56:16.565Z,24.60
2018-04-27T16:58:44.177Z,24.40
2018-04-27T17:01:11.789Z,24.30
2018-04-27T17:03:39.376Z,24.30
2018-04-27T17:06:07.838Z,24.40
2018-04-27T17:08:35.429Z,24.10
2018-04-27T17:11:02.949Z,23.90
2018-04-27T17:13:30.573Z,23.70
2018-04-27T17:15:58.080Z,23.30
2018-04-27T17:18:26.604Z,23.20
2018-04-27T17:20:54.165Z,23.00
2018-04-27T17:23:21.713Z,22.70
2018-04-27T17:25:50.238Z,22.70
2018-04-27T17:28:17.764Z,22.70
2018-04-27T17:30:45.338Z,22.60
2018-04-27T17:33:12.853Z,22.50
2018-04-27T17:35:40.415Z,22.30
2018-04-27T17:38:07.961Z,22.20
2018-04-27T17:40:35.549Z,22.20
2018-04-27T17:43:04.047Z,21.90
2018-04-27T17:45:31.601Z,21.80
2018-04-27T17:47:59.931Z,21.50
2018-04-27T17:50:28.417Z,21.40
2018-04-27T17:52:57.921Z,21.40
2018-04-27T17:55:25.480Z,21.30
2018-04-27T17:57:53.041Z,21.20
2018-04-27T18:00:20.602Z,21.10
2018-04-27T18:02:48.163Z,21.00
2018-04-27T18:05:15.712Z,20.90
2018-04-27T18:07:43.281Z,20.90
2018-04-27T18:10:10.825Z,20.80
2018-04-27T18:12:38.368Z,20.70
2018-04-27T18:15:05.938Z,20.60
2018-04-27T18:17:33.694Z,20.60
2018-04-27T18:20:01.259Z,20.40
2018-04-27T18:22:28.796Z,20.30
2018-04-27T18:24:56.352Z,20.30
2018-04-27T18:27:23.878Z,20.10
2018-04-27T18:29:51.466Z,19.90
2018-04-27T18:32:19.741Z,19.80
2018-04-27T18:34:47.261Z,19.70
2018-04-27T18:37:14.828Z,19.70
2018-04-27T18:39:43.152Z,19.60
2018-04-27T18:42:12.675Z,19.50
2018-04-27T18:44:40.412Z,19.40
2018-04-27T18:47:07.983Z,19.40
2018-04-27T18:49:35.532Z,19.30
2018-04-27T18:52:03.097Z,19.30
2018-04-27T18:54:30.629Z,19.20
2018-04-27T18:56:58.199Z,19.20
2018-04-27T18:59:25.777Z,19.10
2018-04-27T19:01:53.310Z,19.00
2018-04-27T19:04:21.625Z,18.90
2018-04-27T19:06:49.150Z,18.90
2018-04-27T19:09:16.693Z,18.80
2018-04-27T19:11:44.966Z,18.80
2018-04-27T19:14:12.583Z,18.70
2018-04-27T19:16:40.837Z,18.50
2018-04-27T19:19:08.394Z,18.50
2018-04-27T19:21:35.953Z,18.50
2018-04-27T19:24:03.488Z,18.50
2018-04-27T19:26:31.970Z,18.40
2018-04-27T19:29:00.271Z,18.30
2018-04-27T19:31:27.842Z,18.30
2018-04-27T19:33:55.370Z,18.30
2018-04-27T19:36:23.689Z,18.20
2018-04-27T19:38:51.208Z,18.20
2018-04-27T19:41:18.745Z,18.00
2018-04-27T19:43:46.590Z,18.00
2018-04-27T19:46:14.133Z,17.90
2018-04-27T19:48:41.765Z,17.80
2018-04-27T19:51:10.212Z,17.70
2018-04-27T19:53:37.757Z,17.50
2018-04-27T19:56:05.334Z,17.30
2018-04-27T19:58:33.869Z,17.00
2018-04-27T20:01:01.466Z,16.80
2018-04-27T20:03:28.990Z,16.60
2018-04-27T20:05:56.577Z,16.60
2018-04-27T20:08:24.128Z,16.40
2018-04-27T20:10:52.668Z,16.30
2018-04-27T20:13:20.226Z,16.10
2018-04-27T20:15:49.539Z,15.90
2018-04-27T20:18:17.154Z,15.80
2018-04-27T20:20:44.645Z,15.70
2018-04-27T20:23:12.235Z,15.50
2018-04-27T20:25:41.349Z,15.40
2018-04-27T20:28:08.912Z,15.30
2018-04-27T20:30:36.437Z,15.10
2018-04-27T20:33:05.940Z,15.10
2018-04-27T20:35:33.494Z,14.90
2018-04-27T20:38:06.007Z,14.70
2018-04-27T20:40:34.558Z,14.70
2018-04-27T20:43:05.952Z,14.70
2018-04-27T20:45:36.401Z,14.70
2018-04-27T20:48:03.945Z,14.50
2018-04-27T20:50:32.513Z,14.30
2018-04-27T20:53:02.562Z,14.10
2018-04-27T20:55:31.931Z,14.00
2018-04-27T20:57:59.520Z,14.10
2018-04-27T21:00:30.986Z,14.10
2018-04-27T21:02:58.673Z,13.90
2018-04-27T21:05:26.237Z,14.00
2018-04-27T21:07:53.766Z,13.70
2018-04-27T21:10:21.417Z,13.70
2018-04-27T21:12:50.617Z,13.70
2018-04-27T21:15:18.150Z,13.70
2018-04-27T21:17:45.713Z,13.70
2018-04-27T21:20:13.246Z,13.60
2018-04-27T21:22:44.706Z,13.70
2018-04-27T21:25:13.146Z,13.70
2018-04-27T21:27:43.415Z,13.70
2018-04-27T21:30:13.057Z,13.70
2018-04-27T21:32:40.557Z,13.70
2018-04-27T21:35:10.138Z,13.70
2018-04-27T21:37:44.581Z,13.60
2018-04-27T21:40:12.210Z,13.70
2018-04-27T21:42:39.754Z,13.60
2018-04-27T21:45:08.427Z,13.60
2018-04-27T21:47:37.606Z,13.50
2018-04-27T21:50:07.549Z,13.50
2018-04-27T21:52:37.680Z,13.30
2018-04-27T21:55:07.290Z,13.20
2018-04-27T22:00:35.269Z,13.30
2018-04-27T22:03:06.701Z,13.30
2018-04-27T22:05:43.026Z,13.40
2018-04-27T22:08:17.492Z,13.10
2018-04-27T22:10:46.637Z,13.00
2018-04-27T22:13:17.134Z,13.00
2018-04-27T22:15:44.688Z,13.10
2018-04-27T22:18:13.000Z,13.10
2018-04-27T22:20:46.144Z,13.10
2018-04-27T22:23:16.707Z,13.10
2018-04-27T22:25:44.237Z,13.00
2018-04-27T22:28:11.769Z,12.90
2018-04-27T22:30:41.923Z,12.80
2018-04-27T22:36:07.565Z,12.80
2018-04-27T22:38:40.949Z,12.70
2018-04-27T22:41:11.200Z,12.70
2018-04-27T22:43:42.649Z,12.60
2018-04-27T22:46:10.195Z,12.50
2018-04-27T22:48:37.761Z,12.60
2018-04-27T22:51:13.185Z,12.60
2018-04-27T22:53:59.280Z,12.60
2018-04-27T22:59:29.827Z,12.60
2018-04-27T23:02:11.048Z,12.50
2018-04-27T23:04:38.579Z,12.50
2018-04-27T23:07:06.142Z,12.50
2018-04-27T23:09:33.695Z,12.40
2018-04-27T23:12:04.825Z,12.50
2018-04-27T23:14:34.049Z,12.50
2018-04-27T23:17:01.585Z,12.50
2018-04-27T23:19:35.828Z,12.60
2018-04-27T23:22:24.136Z,12.60
2018-04-27T23:24:53.445Z,12.60
2018-04-27T23:27:20.975Z,12.60
2018-04-27T23:29:48.558Z,12.60
2018-04-27T23:32:16.845Z,12.50
2018-04-27T23:34:44.400Z,12.50
2018-04-27T23:37:11.941Z,12.40
2018-04-27T23:39:40.259Z,12.60
2018-04-27T23:42:07.788Z,12.60
2018-04-27T23:44:35.321Z,12.40
2018-04-27T23:47:02.879Z,12.50
2018-04-27T23:49:30.401Z,12.30
2018-04-27T23:51:57.973Z,12.40
2018-04-27T23:54:25.524Z,12.30
2018-04-27T23:56:53.053Z,12.50
2018-04-27T23:59:21.501Z,12.50
